ADDS METAR Data INFO
IDs: Format: Raw Decoded Include TAF

Data at: 0345 UTC 18 Oct 2017

PFCL 180256Z AUTO 01017KT CLR 01/M03 A2937 RMK AO2 SLP939 T00111033 53018 PWINO FZRANO TSNO $
PFCL 180156Z AUTO 01015KT CLR 02/M03 A2935 RMK AO2 SLP931 T00221033 PWINO FZRANO TSNO $
PFCL 180056Z AUTO 01020G25KT CLR 02/M02 A2933 RMK AO2 PK WND 36026/0028 SLP924 T00221022 PWINO FZRANO TSNO $
PFCL 172356Z AUTO 01018G25KT CLR 03/M02 A2932 RMK AO2 PK WND 01028/2321 SLP921 T00281022 10028 20006 53004 PWINO TSNO $
PFCL 172256Z AUTO 01021G26KT CLR 02/M02 A2930 RMK AO2 PK WND 02027/2243 SLP917 T00221022 PWINO FZRANO TSNO $
PFCL 172156Z AUTO 02020G27KT CLR 01/M03 A2930 RMK AO2 PK WND 02030/2120 SLP917 T00111033 PWINO FZRANO TSNO $
PFCL 172056Z AUTO 02020G31KT CLR 01/M03 A2930 RMK AO2 PK WND 02032/2042 SLP917 T00111028 56004 PWINO FZRANO TSNO $
PFCL 171956Z AUTO 03023G30KT CLR 01/M03 A2931 RMK AO2 PK WND 03030/1955 SLP918 T00061033 PWINO FZRANO TSNO $
PFCL 171856Z AUTO 03020G26KT OVC055 01/M03 A2931 RMK AO2 PK WND 03026/1848 SLP918 T00061028 PWINO FZRANO TSNO $
PFCL 171756Z AUTO 04015G22KT OVC050 01/M02 A2932 RMK AO2 SLP920 T00061022 10022 20006 56009 PWINO FZRANO TSNO $
PFCL 171656Z AUTO 05015KT BKN036 OVC050 01/M02 A2932 RMK AO2 SLP922 T00061022 PWINO FZRANO TSNO $
PFCL 171556Z AUTO 05016KT BKN030 BKN038 OVC046 01/M01 A2933 RMK AO2 SLP925 T00061011 PWINO FZRANO TSNO $
PFCL 171541Z AUTO 05016G21KT BKN028 BKN036 OVC046 01/M01 A2933 RMK AO2 PWINO FZRANO TSNO $
PFCL 171521Z AUTO 05015KT SCT026 OVC046 01/M01 A2934 RMK AO2 PWINO FZRANO TSNO $
PFCL 171456Z AUTO 05012KT BKN024 BKN040 01/M01 A2934 RMK AO2 SLP929 T00111006 56016 PWINO FZRANO TSNO $
PFCL 171356Z AUTO 05012KT BKN018 OVC031 01/00 A2936 RMK AO2 SLP936 T00110000 PWINO FZRANO TSNO $
PFCL 171351Z AUTO 06013KT BKN016 OVC031 01/00 A2936 RMK AO2 PWINO FZRANO TSNO $
PFCL 171340Z AUTO 06014KT SCT016 OVC031 01/01 A2937 RMK AO2 PWINO FZRANO TSNO $
PFCL 171310Z AUTO 06014KT BKN016 OVC025 02/01 A2938 RMK AO2 PWINO FZRANO TSNO $
PFCL 171256Z AUTO 06013KT FEW005 BKN012 OVC025 02/01 A2939 RMK AO2 SLP945 T00170011 PWINO FZRANO TSNO $
PFCL 171252Z AUTO 06013G18KT SCT005 BKN012 OVC025 02/01 A2939 RMK AO2 PWINO FZRANO TSNO $
PFCL 171228Z AUTO 06012KT OVC007 02/02 A2941 RMK AO2 PWINO FZRANO TSNO $
PFCL 171156Z AUTO 07010KT OVC005 02/02 A2942 RMK AO2 CIG 004V009 SLP956 60005 70008 T00220017 10022 20017 58033 PWINO FZRANO TSNO $
PFCL 171106Z AUTO 07009KT BKN006 OVC011 02/02 A2945 RMK AO2 CIG 004V010 PWINO FZRANO TSNO $
PFCL 171036Z AUTO 07008KT BKN013 OVC020 02/02 A2947 RMK AO2 PWINO FZRANO TSNO $
PFCL 170956Z AUTO 07009KT FEW012 BKN024 OVC049 02/02 A2949 RMK AO2 SLP980 P0002 T00170017 PWINO FZRANO TSNO $
PFCL 170903Z AUTO 08010KT FEW011 BKN029 OVC042 02/02 A2951 RMK AO2 PWINO FZRANO TSNO $
PFCL 170856Z AUTO 08010KT BKN013 BKN024 OVC029 02/02 A2952 RMK AO2 SLP988 P0003 60003 T00220017 400670011 58020 PWINO FZRANO TSNO $
PFCL 170833Z AUTO 08010KT BKN011 OVC023 02/02 A2953 RMK AO2 P0003 PWINO FZRANO TSNO $
PFCL 170815Z AUTO 09010KT BKN023 OVC030 02/02 A2954 RMK AO2 P0002 PWINO FZRANO TSNO $
PFCL 170756Z AUTO 09009KT FEW015 OVC030 02/02 A2955 RMK AO2 SLP999 T00220017 PWINO FZRANO TSNO $
PFCL 170751Z AUTO 09009KT SCT015 OVC030 02/02 A2955 RMK AO2 PWINO FZRANO TSNO $
PFCL 170656Z AUTO 10006KT BKN023 OVC029 02/02 A2957 RMK AO2 SLP008 T00220017 PWINO FZRANO TSNO $
PFCL 170634Z AUTO 09007KT BKN025 OVC035 02/02 A2958 RMK AO2 PWINO FZRANO TSNO $
PFCL 170619Z AUTO 08006KT SCT025 OVC032 02/01 A2959 RMK AO2 PWINO FZRANO TSNO $
PFCL 170556Z AUTO 09005KT BKN021 BKN026 OVC034 02/01 A2960 RMK AO2 SLP017 P0003 60003 T00220011 10067 20011 56020 PWINO FZRANO TSNO $
PFCL 170528Z AUTO 15006KT BKN023 BKN032 OVC043 02/01 A2962 RMK AO2 PWINO FZRANO TSNO $
PFCL 170456Z AUTO 13003KT FEW023 SCT033 OVC045 01/01 A2962 RMK AO2 SLP023 T00110006 PWINO FZRANO TSNO $
PFCL 170424Z AUTO 10004KT SCT026 BKN031 BKN043 02/02 A2963 RMK AO2 PWINO FZRANO TSNO $
PFCL 170325Z AUTO 13006KT BKN027 OVC038 03/02 A2965 RMK AO2 PWINO TSNO $
PFCL 170256Z AUTO 15005KT SCT027 OVC033 03/02 A2966 RMK AO2 SLP037 T00330017 56009 PWINO TSNO $
PFCL 170253Z AUTO 15006KT SCT027 OVC033 03/02 A2966 RMK AO2 PWINO TSNO $
PFCL 170224Z AUTO 20008KT BKN027 OVC042 04/02 A2967 RMK AO2 PWINO TSNO $
PFCL 170156Z AUTO 22003KT FEW044 BKN055 OVC075 06/01 A2967 RMK AO2 SLP041 T00560006 PWINO TSNO $
PFCL 170056Z AUTO 00000KT FEW065 06/01 A2969 RMK AO2 SLP047 T00610011 PWINO TSNO $
PFCL 162356Z AUTO 23005KT OVC100 07/01 A2971 RMK AO2 SLP053 T00670006 10067 20017 58009 PWINO TSNO $
PFCL 162256Z AUTO VRB03KT CLR 06/01 A2972 RMK AO2 SLP056 T00610011 PWINO TSNO $
PFCL 162156Z AUTO VRB03KT CLR 06/01 A2973 RMK AO2 SLP059 T00560011 PWINO TSNO $
PFCL 162056Z AUTO 00000KT CLR 04/01 A2973 RMK AO2 SLP062 T00440011 51009 PWINO TSNO $
PFCL 161956Z AUTO 29003KT CLR 04/01 A2973 RMK AO2 SLP059 T00390011 PWINO TSNO $
PFCL 161856Z AUTO 26003KT CLR 03/01 A2972 RMK AO2 SLP056 T00280006 PWINO TSNO $
PFCL 161756Z AUTO 28005KT CLR 02/01 A2970 RMK AO2 SLP052 T00170006 10028 20011 51007 PWINO FZRANO TSNO $
PFCL 161656Z AUTO 26003KT CLR 02/00 A2970 RMK AO2 SLP050 T00170000 PWINO FZRANO TSNO $
PFCL 161556Z AUTO 26005KT CLR 02/01 A2969 RMK AO2 SLP049 T00170006 PWINO FZRANO TSNO $